Monday, November 20, 2017, 1:59 PM EST
Back to Local

KELZ, Wellsville Municipal Airport

Location: Wellsville, NY, United States Lat: 42.1
Local Time: 1:59 PM EST (18:59 GMT) Lon: -78
Time Zone: US/Eastern Elev: 2122 ft

Show me the last for .
Show Decoded

2017-11-20 12:56 METAR KELZ 201756Z AUTO 26013G22KT 10SM OVC070 02/M05 A2995 RMK AO2 SLP162 60000
                 T00221050 10022 21017 58007 =
2017-11-20 11:59 METAR KELZ 201659Z AUTO 25011G18KT 220V290 10SM SCT014 01/M04 A2995 RMK AO2
                 T00061039 =
2017-11-20 11:56 METAR KELZ 201656Z AUTO 25010G20KT 10SM BKN012 BKN018 01/M04 A2995 RMK AO2 SNE12
                 SLP165 P0000 T00061039 =
2017-11-20 11:36 METAR KELZ 201636Z AUTO 25011G21KT 8SM OVC010 M01/M04 A2996 RMK AO2 SNE12 P0000
                 T10061039 =
2017-11-20 11:05 METAR KELZ 201605Z AUTO 24011G21KT 4SM -SN OVC009 M01/M04 A2997 RMK AO2 P0000
                 T10111044 =
2017-11-20 10:56 METAR KELZ 201556Z AUTO 24008G18KT 4SM -SN OVC010 M01/M04 A2997 RMK AO2 SLP172
                 P0000 T10111044 =
2017-11-20 09:56 METAR KELZ 201456Z AUTO 25011G19KT 3SM -SN OVC011 M02/M05 A2997 RMK AO2 SLP173
                 P0000 60000 T10171050 51010 =
2017-11-20 09:31 METAR KELZ 201431Z AUTO 25011G19KT 2SM -SN OVC013 M02/M05 A2997 RMK AO2 P0000
                 T10171050 =
2017-11-20 09:24 METAR KELZ 201424Z AUTO 24012G19KT 3SM -SN OVC013 M02/M05 A2997 RMK AO2 P0000
                 T10171050 =
2017-11-20 09:13 METAR KELZ 201413Z AUTO 24009G19KT 3SM -SN OVC015 M02/M05 A2997 RMK AO2 P0000
                 T10171050 =
2017-11-20 09:02 METAR KELZ 201402Z AUTO 24009G17KT 2SM -SN OVC015 M02/M05 A2997 RMK AO2 P0000
                 T10171050 =
2017-11-20 08:56 METAR KELZ 201356Z AUTO 24007G19KT 1 3/4SM -SN BKN014 OVC021 M02/M05 A2997 RMK
                 AO2 UPB17E21SNB21 SLP173 P0000 T10171050 =
2017-11-20 07:56 METAR KELZ 201256Z AUTO 25009G17KT 10SM OVC019 M02/M06 A2996 RMK AO2 SLP169
                 T10171056 =
2017-11-20 06:56 METAR KELZ 201156Z AUTO 28017G21KT 10SM BKN021 OVC033 M02/M07 A2994 RMK AO2
                 SNE20 SLP161 P0000 60001 70009 T10171067 11017 21022 51023 $ =
2017-11-20 05:56 METAR KELZ 201056Z AUTO 27014G21KT 4SM -SN OVC017 M02/M06 A2991 RMK AO2 SLP153
                 P0001 T10221056 $ =
2017-11-20 04:56 METAR KELZ 200956Z AUTO 27010G18KT 4SM -SN BKN020 OVC031 M02/M06 A2989 RMK AO2
                 PK WND 27028/0928 SLP146 P0000 T10221061 $ =
2017-11-20 04:20 METAR KELZ 200920Z AUTO 27016G22KT 7SM -SN SCT018 BKN042 OVC100 M02/M06 A2988
                 RMK AO2 P0000 T10221061 $ =
2017-11-20 04:01 METAR KELZ 200901Z AUTO 28016G24KT 3SM -SN FEW011 BKN017 OVC042 M02/M06 A2987
                 RMK AO2 P0000 T10221056 $ =
2017-11-20 03:56 METAR KELZ 200856Z AUTO 28012G20KT 2 1/2SM -SN BKN014 BKN021 OVC041 M02/M06
                 A2987 RMK AO2 SLP135 P0000 60000 T10221056 51013 $ =
2017-11-20 03:46 METAR KELZ 200846Z AUTO 28011KT 4SM -SN BKN012 OVC021 M02/M06 A2987 RMK AO2
                 P0000 T10221056 $ =
2017-11-20 03:32 METAR KELZ 200832Z AUTO 28011G20KT 3SM -SN FEW016 BKN024 OVC030 M02/M06 A2987
                 RMK AO2 P0000 T10221056 $ =
2017-11-20 03:16 METAR KELZ 200816Z AUTO 28012KT 1 3/4SM -SN FEW020 BKN028 OVC037 M02/M06 A2987
                 RMK AO2 P0000 T10221056 $ =
2017-11-20 02:56 METAR KELZ 200756Z AUTO 28011KT 2 1/2SM -SN FEW014 BKN032 OVC046 M02/M06 A2986
                 RMK AO2 SLP134 P0000 T10221056 $ =
2017-11-20 02:49 METAR KELZ 200749Z AUTO 26009KT 3SM -SN FEW014 BKN038 OVC045 M02/M06 A2986 RMK
                 AO2 P0000 T10221056 $ =
2017-11-20 01:56 METAR KELZ 200656Z AUTO 29016G20KT 7SM -SN BKN017 OVC022 M02/M06 A2985 RMK AO2
                 SNE28B51 SLP129 P0000 T10221061 $ =
2017-11-20 00:56 METAR KELZ 200556Z AUTO 28013KT 6SM -SN SCT018 BKN026 OVC049 M02/M06 A2983 RMK
                 AO2 SLP121 P0000 60005 T10221056 11006 21022 53011 $ =
2017-11-20 00:06 METAR KELZ 200506Z AUTO 28010KT 5SM -SN BKN015 BKN024 OVC055 M02/M05 A2981 RMK
                 AO2 P0000 T10221050 $ =
2017-11-19 23:56 METAR KELZ 200456Z AUTO 27007KT 2 1/2SM -SN SCT014 BKN018 OVC025 M02/M05 A2981
                 RMK AO2 VIS 2V4 SLP115 P0000 T10221050 400941022 $ =
2017-11-19 23:31 METAR KELZ 200431Z AUTO 27006KT 3SM -SN BKN012 OVC020 M02/M04 A2981 RMK AO2
                 P0000 T10171044 $ =
2017-11-19 23:16 METAR KELZ 200416Z AUTO 31010KT 6SM -SN SCT010 BKN016 OVC027 M02/M05 A2980 RMK
                 AO2 P0000 T10171050 $ =
2017-11-19 23:05 METAR KELZ 200405Z AUTO 31011KT 2SM -SN SCT010 OVC016 M02/M04 A2980 RMK AO2
                 P0000 T10171044 $ =
2017-11-19 22:56 METAR KELZ 200356Z AUTO 31012KT 1 1/4SM -SN BKN011 OVC016 M02/M04 A2979 RMK AO2
                 SLP110 P0001 T10171044 $ =
2017-11-19 22:52 METAR KELZ 200352Z AUTO 31010KT 1 1/4SM -SN FEW009 BKN014 OVC019 M02/M04 A2979
                 RMK AO2 P0001 $ =
2017-11-19 22:36 METAR KELZ 200336Z AUTO 32013KT 3/4SM -SN FEW008 BKN014 OVC019 M02/M04 A2979 RMK
                 AO2 P0001 T10171044 $ =
2017-11-19 22:23 METAR KELZ 200323Z AUTO 30014KT 1 3/4SM -SN SCT008 BKN016 OVC024 M02/M04 A2979
                 RMK AO2 P0001 T10171044 $ =
2017-11-19 22:12 METAR KELZ 200312Z AUTO 28009KT 1 1/2SM -SN BKN008 BKN013 OVC020 M02/M04 A2979
                 RMK AO2 P0001 T10171044 $ =
2017-11-19 21:59 METAR KELZ 200259Z AUTO 30010KT 1/2SM SN FZFG BKN006 OVC012 M02/M04 A2978 RMK
                 AO2 P0000 T10221044 $ =
2017-11-19 21:56 METAR KELZ 200256Z AUTO 30010KT 1/4SM SN FZFG BKN004 OVC012 M02/M04 A2978 RMK
                 AO2 SLP105 P0002 60004 T10221044 51019 $ =
2017-11-19 21:48 METAR KELZ 200248Z AUTO 31013KT 1/4SM +SN FZFG SCT006 BKN012 OVC017 M02/M04
                 A2978 RMK AO2 P0002 T10221044 $ =
2017-11-19 21:43 METAR KELZ 200243Z AUTO 31015G21KT 3/4SM -SN SCT008 BKN012 OVC017 M02/M04 A2977
                 RMK AO2 P0001 T10171044 $ =
2017-11-19 21:30 METAR KELZ 200230Z AUTO 30008KT 2SM -SN BR BKN009 OVC015 M02/M04 A2977 RMK AO2
                 P0001 T10171039 $ =
2017-11-19 21:25 METAR KELZ 200225Z AUTO 30007KT 3/4SM -SN BR BKN009 BKN013 OVC017 M02/M04 A2977
                 RMK AO2 P0001 T10171039 $ =
2017-11-19 21:10 METAR KELZ 200210Z AUTO 30010KT 3/4SM -SN VV014 M02/M04 A2977 RMK AO2 P0000
                 T10171044 $ =
2017-11-19 21:04 METAR KELZ 200204Z AUTO 30013KT 1SM -SN BKN017 OVC080 M02/M04 A2977 RMK AO2
                 P0000 T10171044 $ =
2017-11-19 20:56 METAR KELZ 200156Z AUTO 31010KT 2SM -SN FEW016 BKN025 OVC080 M02/M05 A2976 RMK
                 AO2 PK WND 31030/0106 UPB23E30SNE23B30 SLP099 P0000 T10171050 $ =
2017-11-19 20:31 METAR KELZ 200131Z AUTO 30015KT 9SM -SN SCT028 BKN049 OVC080 M02/M05 A2975 RMK
                 AO2 PK WND 31030/0106 UPB23E30SNE23B30 P0000 T10171050 $ =
2017-11-19 20:18 METAR KELZ 200118Z AUTO 31012G26KT 4SM -SN FEW011 BKN023 OVC080 M02/M05 A2975
                 RMK AO2 PK WND 31030/0106 P0000 T10171050 $ =
2017-11-19 19:56 METAR KELZ 200056Z AUTO 30016G21KT 1SM -SN SCT011 BKN018 OVC075 M01/M04 A2974
                 RMK AO2 SLP091 P0002 T10111039 $ =
2017-11-19 19:53 METAR KELZ 200053Z AUTO 33014G21KT 1 3/4SM -SN SCT011 BKN016 OVC075 M01/M04
                 A2974 RMK AO2 P0002 $ =
2017-11-19 19:46 METAR KELZ 200046Z AUTO 30012KT 8SM -SN BKN018 BKN060 OVC075 M01/M04 A2973 RMK
                 AO2 P0001 T10061039 $ =
2017-11-19 19:39 METAR KELZ 200039Z AUTO 30013KT 9SM -SN FEW011 BKN060 OVC075 M01/M04 A2973 RMK
                 AO2 P0001 T10061039 $ =
2017-11-19 19:32 METAR KELZ 200032Z AUTO 30014KT 3SM -SN FEW005 BKN014 OVC070 M01/M04 A2972 RMK
                 AO2 P0001 T10111039 $ =
2017-11-19 19:29 METAR KELZ 200029Z AUTO 29012KT 1 1/2SM -SN BR BKN011 BKN017 OVC060 M01/M03
                 A2972 RMK AO2 P0001 T10111033 $ =
2017-11-19 19:23 METAR KELZ 200023Z AUTO 30012KT 3/4SM -SN BR BKN009 BKN017 OVC025 M01/M03 A2973
                 RMK AO2 P0001 T10111033 $ =
2017-11-19 19:17 METAR KELZ 200017Z AUTO 30011KT 1SM -SN BR FEW006 BKN011 OVC028 M01/M03 A2973
                 RMK AO2 P0001 T10111033 $ =
2017-11-19 19:05 METAR KELZ 200005Z AUTO 30012KT 1/2SM SN FZFG BKN013 BKN018 OVC070 M01/M03 A2972
                 RMK AO2 P0001 T10111033 $ =
2017-11-19 18:59 METAR KELZ 192359Z AUTO 31015G23KT 1 1/4SM -SN FEW016 BKN025 OVC070 M01/M04
                 A2972 RMK AO2 VIS 1/4V5 P0000 T10061039 $ =
2017-11-19 18:56 METAR KELZ 192356Z AUTO 30016G23KT 3SM -SN FEW018 BKN036 OVC070 M01/M04 A2972
                 RMK AO2 UPB41E43SNE41B48 SLP083 P0000 60002 T10061039 10028 21006 51021 $ =
2017-11-19 18:49 METAR KELZ 192349Z AUTO 30017G22KT 7SM -SN FEW007 BKN050 OVC070 M01/M04 A2971
                 RMK AO2 UPB41E43SNE41B48 P0000 T10061039 $ =
2017-11-19 18:42 METAR KELZ 192342Z AUTO 30014G22KT 9SM UP FEW009 BKN026 OVC060 M01/M04 A2971 RMK
                 AO2 UPB41SNE41 P0000 T10061039 $ =
2017-11-19 18:35 METAR KELZ 192335Z AUTO 30015G21KT 2 1/2SM -SN FEW009 BKN018 OVC075 M01/M03
                 A2971 RMK AO2 P0000 T10061033 $ =
2017-11-19 18:27 METAR KELZ 192327Z AUTO 31013KT 1SM -SN BR FEW006 BKN011 OVC022 M01/M03 A2971
                 RMK AO2 P0000 T10061028 $ =
2017-11-19 18:09 METAR KELZ 192309Z AUTO 30015KT 3/4SM -SN BKN013 BKN021 OVC026 00/M03 A2971 RMK
                 AO2 P0000 T00001028 $ =
2017-11-19 18:04 METAR KELZ 192304Z AUTO 30015G21KT 1 3/4SM -SN BKN015 BKN023 OVC075 00/M03 A2970
                 RMK AO2 P0000 T00001033 $ =
2017-11-19 17:56 METAR KELZ 192256Z AUTO 30014G20KT 7SM -SN FEW009 BKN017 OVC023 00/M03 A2970 RMK
                 AO2 PK WND 31028/2205 SLP074 P0002 T00001028 $ =
2017-11-19 17:53 METAR KELZ 192253Z AUTO 30012KT 3SM -SN FEW011 BKN019 OVC029 00/M03 A2969 RMK
                 AO2 PK WND 31028/2205 P0002 $ =
2017-11-19 17:48 METAR KELZ 192248Z AUTO 31012G23KT 1SM -SN FEW009 BKN017 OVC022 00/M03 A2969 RMK
                 AO2 PK WND 31028/2205 P0002 T00001028 $ =
2017-11-19 17:40 METAR KELZ 192240Z AUTO 29016G23KT 3/4SM -SN FEW007 BKN013 OVC020 00/M03 A2969
                 RMK AO2 PK WND 31028/2205 P0001 T00001028 $ =
2017-11-19 17:31 METAR KELZ 192231Z AUTO 30014KT 1 1/4SM -SN FEW013 BKN018 OVC033 00/M03 A2969
                 RMK AO2 PK WND 31028/2205 P0001 T00001028 $ =
2017-11-19 17:16 METAR KELZ 192216Z AUTO 30017G26KT 1 1/4SM -SN FEW010 BKN014 OVC043 00/M03 A2968
                 RMK AO2 PK WND 31028/2205 P0001 T00001028 $ =
2017-11-19 17:02 METAR KELZ 192202Z AUTO 29020G26KT 1/2SM SN SCT005 BKN012 OVC025 00/M03 A2968
                 RMK AO2 PK WND 29026/2202 P0001 T00001028 $ =
2017-11-19 16:56 METAR KELZ 192156Z AUTO 30019G24KT 1SM -SN FEW009 BKN017 OVC025 01/M03 A2968 RMK
                 AO2 SNB33E49B55 SLP067 P0000 T00061028 $ =
2017-11-19 16:49 METAR KELZ 192149Z AUTO 28013G21KT 9SM BKN017 BKN025 OVC080 01/M03 A2967 RMK AO2
                 SNB33E49 P0000 T00061033 $ =
2017-11-19 16:34 METAR KELZ 192134Z AUTO 29016G25KT 2 1/2SM -SN FEW015 BKN023 OVC075 01/M03 A2966
                 RMK AO2 SNB33 P0000 T00111033 $ =
2017-11-19 16:26 METAR KELZ 192126Z AUTO 29015KT 10SM SCT024 SCT031 OVC075 01/M03 A2966 RMK AO2
                 T00111033 $ =
2017-11-19 15:56 METAR KELZ 192056Z AUTO 29018G24KT 10SM BKN027 OVC032 02/M04 A2965 RMK AO2
                 SLP057 60000 T00171039 53011 $ =
2017-11-19 15:25 METAR KELZ 192025Z AUTO 28014G21KT 10SM BKN027 OVC035 02/M04 A2964 RMK AO2
                 T00171039 $ =
2017-11-19 14:56 METAR KELZ 191956Z AUTO 30014G28KT 10SM SCT025 BKN034 OVC075 02/M03 A2963 RMK
                 AO2 PK WND 32030/1916 UPB05E06B28E40SNE05B06E07B27E28 SLP046 P0000 T00221033 $ =
2017-11-19 14:21 METAR KELZ 191921Z AUTO 30018G30KT 10SM BKN025 OVC049 02/M03 A2963 RMK AO2 PK
                 WND 32030/1916 UPB05E06SNE05B06E07 P0000 T00221028 $ =
2017-11-19 14:07 METAR KELZ 191907Z AUTO 29021G29KT 9SM SCT025 BKN035 OVC050 02/M03 A2962 RMK AO2
                 PK WND 30029/1907 UPB05E06SNE05B06E07 P0000 T00221028 $ =

Support USWX by starting your Amazon purchase here.